createdAt,value
2019-03-12T00:04:25.355Z,7.67
2019-03-12T00:09:28.784Z,12.30
2019-03-12T00:14:32.221Z,9.70
2019-03-12T00:19:35.676Z,9.43
2019-03-12T00:24:39.086Z,13.00
2019-03-12T00:29:42.570Z,8.40
2019-03-12T00:34:45.996Z,9.53
2019-03-12T00:39:50.097Z,12.40
2019-03-12T00:44:53.464Z,13.97
2019-03-12T00:49:56.911Z,9.43
2019-03-12T00:55:00.397Z,10.57
2019-03-12T01:00:06.694Z,8.37
2019-03-12T01:05:10.271Z,7.67
2019-03-12T01:10:15.627Z,12.17
2019-03-12T01:15:19.094Z,5.27
2019-03-12T01:20:22.555Z,10.60
2019-03-12T01:25:25.988Z,6.17
2019-03-12T01:30:29.465Z,11.43
2019-03-12T01:35:32.899Z,8.53
2019-03-12T01:40:36.345Z,13.73
2019-03-12T01:45:39.830Z,11.93
2019-03-12T01:50:43.286Z,13.13
2019-03-12T01:55:46.775Z,17.97
2019-03-12T02:00:50.313Z,18.77
2019-03-12T02:05:53.772Z,12.20
2019-03-12T02:10:57.282Z,16.50
2019-03-12T02:16:00.782Z,13.10
2019-03-12T02:21:04.278Z,11.30
2019-03-12T02:26:07.733Z,12.47
2019-03-12T02:31:11.156Z,19.47
2019-03-12T02:36:14.570Z,9.73
2019-03-12T02:41:18.100Z,9.93
2019-03-12T02:46:21.547Z,14.50
2019-03-12T02:51:25.058Z,9.77
2019-03-12T02:56:28.518Z,17.27
2019-03-12T03:01:31.961Z,13.03
2019-03-12T03:06:39.598Z,13.30
2019-03-12T03:11:43.048Z,14.50
2019-03-12T03:16:46.500Z,12.63
2019-03-12T03:21:49.965Z,10.27
2019-03-12T03:26:53.416Z,12.57
2019-03-12T03:31:56.865Z,12.67
2019-03-12T03:37:00.343Z,12.57
2019-03-12T03:42:03.844Z,13.10
2019-03-12T03:47:07.284Z,9.80
2019-03-12T03:52:10.737Z,21.23
2019-03-12T03:57:14.200Z,17.50
2019-03-12T04:02:17.658Z,16.67
2019-03-12T04:07:21.087Z,22.20
2019-03-12T04:12:24.522Z,15.43
2019-03-12T04:17:27.996Z,20.90
2019-03-12T04:22:31.439Z,13.73
2019-03-12T04:27:35.044Z,14.87
2019-03-12T04:32:38.499Z,16.50
2019-03-12T04:37:41.935Z,18.80
2019-03-12T04:42:45.439Z,17.10
2019-03-12T04:47:48.884Z,14.97
2019-03-12T04:52:52.379Z,13.80
2019-03-12T04:57:55.819Z,16.23
2019-03-12T05:02:59.276Z,23.40
2019-03-12T05:08:02.754Z,19.80
2019-03-12T05:13:06.199Z,18.33
2019-03-12T05:18:09.655Z,14.00
2019-03-12T05:23:13.092Z,19.10
2019-03-12T05:28:16.567Z,12.43
2019-03-12T05:33:20.018Z,12.80
2019-03-12T05:38:23.439Z,15.37
2019-03-12T05:43:26.880Z,11.90
2019-03-12T05:48:30.315Z,20.40
2019-03-12T05:53:39.286Z,13.37
2019-03-12T05:58:42.795Z,15.77
2019-03-12T06:03:46.235Z,16.60
2019-03-12T06:08:49.685Z,19.03
2019-03-12T06:13:53.146Z,18.53
2019-03-12T06:18:56.610Z,20.83
2019-03-12T06:24:00.074Z,17.77
2019-03-12T06:29:03.570Z,25.83
2019-03-12T06:34:08.694Z,20.13
2019-03-12T06:39:16.639Z,17.90
2019-03-12T06:44:21.756Z,25.20
2019-03-12T06:49:32.254Z,18.17
2019-03-12T06:54:49.527Z,24.57
2019-03-12T07:00:03.465Z,23.37
2019-03-12T07:05:15.073Z,24.40
2019-03-12T07:10:35.274Z,19.17
2019-03-12T07:15:48.965Z,19.03
2019-03-12T07:21:05.884Z,17.70
2019-03-12T07:26:13.874Z,17.10
2019-03-12T07:31:21.639Z,15.87
2019-03-12T07:36:26.825Z,19.10
2019-03-12T07:41:37.521Z,17.00
2019-03-12T07:46:45.430Z,17.67
2019-03-12T07:51:50.541Z,14.47
2019-03-12T07:57:11.900Z,20.93
2019-03-12T08:02:25.620Z,11.53
2019-03-12T08:07:33.366Z,12.73
2019-03-12T14:11:35.396Z,9.47
2019-03-12T14:16:38.860Z,4.43
2019-03-12T14:21:42.456Z,7.07
2019-03-12T14:26:45.983Z,7.97
2019-03-12T14:31:49.484Z,8.60
2019-03-12T14:36:53.096Z,4.23
2019-03-12T14:41:56.597Z,7.47
2019-03-12T14:47:00.035Z,6.47
2019-03-12T14:52:06.752Z,7.13
2019-03-12T14:57:10.368Z,3.23
2019-03-12T15:02:13.850Z,8.13
2019-03-12T15:07:17.308Z,2.57
2019-03-12T15:12:20.742Z,6.57
2019-03-12T15:17:24.175Z,3.73
2019-03-12T15:22:27.623Z,4.97
2019-03-12T15:27:31.069Z,6.43
2019-03-12T15:32:34.520Z,8.77
2019-03-12T15:37:37.962Z,3.00
2019-03-12T15:42:41.420Z,4.83
2019-03-12T15:47:44.848Z,2.93
2019-03-12T15:52:48.269Z,6.73
2019-03-12T15:57:51.678Z,4.90
2019-03-12T16:02:55.116Z,2.60
2019-03-12T16:07:58.527Z,6.87
2019-03-12T16:13:01.995Z,6.00
2019-03-12T16:18:05.482Z,4.93
2019-03-12T16:23:08.912Z,3.40
2019-03-12T16:28:12.355Z,6.77
2019-03-12T16:33:15.792Z,7.77
2019-03-12T16:38:19.238Z,7.17
2019-03-12T16:43:22.693Z,6.97
2019-03-12T16:48:26.111Z,4.15
2019-03-12T16:53:29.657Z,8.97
2019-03-12T16:58:33.076Z,8.80
2019-03-12T17:03:36.593Z,10.43
2019-03-12T17:08:40.034Z,5.17
2019-03-12T17:13:43.442Z,3.10
2019-03-12T17:18:46.903Z,6.07
2019-03-12T17:23:50.330Z,3.77
2019-03-12T17:28:53.742Z,5.60
2019-03-12T17:33:57.184Z,3.37
2019-03-12T17:39:00.600Z,5.60
2019-03-12T17:44:04.084Z,7.17
2019-03-12T17:49:07.508Z,9.97
2019-03-12T17:54:10.916Z,6.33
2019-03-12T17:59:14.368Z,2.17
2019-03-12T18:04:17.784Z,4.73
2019-03-12T18:09:21.197Z,4.43
2019-03-12T18:14:24.626Z,4.60
2019-03-12T18:19:28.080Z,4.43
2019-03-12T18:24:31.602Z,3.37
2019-03-12T18:29:35.033Z,4.97
2019-03-12T18:34:38.453Z,3.33
2019-03-12T18:39:41.903Z,2.03
2019-03-12T18:44:45.410Z,2.27
2019-03-12T18:49:48.972Z,3.80
2019-03-12T18:54:52.420Z,1.43
2019-03-12T18:59:55.851Z,10.20
2019-03-12T19:04:59.297Z,3.23
2019-03-12T19:10:02.734Z,6.30
2019-03-12T19:15:09.164Z,6.37
2019-03-12T19:20:19.860Z,5.53
2019-03-12T19:25:41.601Z,1.87
2019-03-12T19:30:45.023Z,12.13
2019-03-12T19:35:48.511Z,8.87
2019-03-12T19:40:54.168Z,2.97
2019-03-12T19:45:57.594Z,2.50
2019-03-12T19:51:01.029Z,2.30
2019-03-12T19:56:08.026Z,6.13
2019-03-12T20:01:12.519Z,1.83
2019-03-12T20:06:15.944Z,5.80
2019-03-12T20:11:34.195Z,5.37
2019-03-12T20:16:43.603Z,2.03
2019-03-12T20:22:12.843Z,3.53
2019-03-12T20:27:22.301Z,5.77
2019-03-12T20:32:43.447Z,1.97
2019-03-12T20:38:11.166Z,1.83
2019-03-12T20:43:50.670Z,3.17
2019-03-12T20:49:16.670Z,5.67
2019-03-12T20:54:41.069Z,2.80
2019-03-12T21:00:22.140Z,4.50
2019-03-12T21:06:02.244Z,4.30
2019-03-12T21:11:37.754Z,5.43
2019-03-12T21:16:56.608Z,2.63
2019-03-12T21:22:20.424Z,3.90
2019-03-12T21:27:45.377Z,3.80
2019-03-12T21:32:48.847Z,2.60
2019-03-12T21:37:52.472Z,4.27
2019-03-12T21:42:55.991Z,5.03
2019-03-12T21:47:59.402Z,1.73
2019-03-12T21:53:03.018Z,2.83
2019-03-12T21:58:06.683Z,4.10
2019-03-12T22:03:10.141Z,4.43
2019-03-12T22:08:13.553Z,2.97
2019-03-12T22:13:16.966Z,5.30
2019-03-12T22:18:20.393Z,4.77
2019-03-12T22:23:25.472Z,1.57
2019-03-12T22:28:28.914Z,1.43
2019-03-12T22:33:32.405Z,1.37
2019-03-12T22:38:35.937Z,3.27
2019-03-12T22:43:39.455Z,1.20
2019-03-12T22:48:42.876Z,2.10
2019-03-12T22:53:46.296Z,3.87
2019-03-12T22:58:49.773Z,0.90
2019-03-12T23:03:53.151Z,1.10
2019-03-12T23:08:57.714Z,0.77
2019-03-12T23:14:01.142Z,2.53
2019-03-12T23:19:04.752Z,1.63
2019-03-12T23:24:08.238Z,2.20
2019-03-12T23:29:11.842Z,4.60
2019-03-12T23:34:15.404Z,3.33
2019-03-12T23:39:19.063Z,5.70
2019-03-12T23:44:22.591Z,4.93
2019-03-12T23:49:26.163Z,5.37
2019-03-12T23:54:30.493Z,5.27
2019-03-12T23:59:33.924Z,5.90
